Time;durP1;ratioP1;P1;durP2;ratioP2;P2;SDS_P1;SDS_P2;PMS_P1;PMS_P2;Temp;Humidity;BMP_temperature;BMP_pressure;BME280_temperature;BME280_humidity;BME280_pressure;Samples;Min_cycle;Max_cycle;Signal;HPM_P1;HPM_P2
2021/12/23 00:00:32;;;;;;;18.30;6.43;;;;;;;0.96;47.77;95398.97;5050154;28;20175;-74
2021/12/23 00:02:57;;;;;;;6.38;5.78;;;;;;;1.19;46.72;95393.00;5047569;28;20221;-74
2021/12/23 00:05:23;;;;;;;5.67;5.07;;;;;;;1.13;46.80;95391.72;5047472;28;20199;-73
2021/12/23 00:07:48;;;;;;;4.50;3.83;;;;;;;0.88;47.38;95396.16;5073208;28;20182;-74
2021/12/23 00:10:14;;;;;;;5.87;5.17;;;;;;;0.74;47.73;95394.66;5086793;28;20217;-74
2021/12/23 00:12:43;;;;;;;5.33;4.83;;;;;;;0.84;47.80;95394.78;5089170;28;20170;-73
2021/12/23 00:15:31;;;;;;;5.10;4.60;;;;;;;0.71;47.86;95394.88;5089762;28;20195;-74
2021/12/23 00:25:37;;;;;;;7.15;4.65;;;;;;;0.97;47.22;95395.47;5089237;28;20509;-74
2021/12/23 00:28:03;;;;;;;5.90;5.30;;;;;;;0.85;46.94;95391.22;5077442;28;20266;-73
2021/12/23 00:30:29;;;;;;;6.40;4.38;;;;;;;0.76;47.34;95391.97;5049331;28;20176;-74
2021/12/23 00:32:56;;;;;;;8.40;5.87;;;;;;;0.87;46.98;95397.09;5049421;28;20175;-72
2021/12/23 00:35:22;;;;;;;5.72;5.05;;;;;;;0.93;46.63;95401.81;5048863;28;20170;-73
2021/12/23 00:37:50;;;;;;;5.97;5.33;;;;;;;0.87;46.69;95404.81;5066542;28;20242;-73
2021/12/23 00:40:17;;;;;;;6.28;5.63;;;;;;;1.15;46.44;95397.56;5070063;28;20247;-73
2021/12/23 00:42:43;;;;;;;5.78;4.75;;;;;;;1.17;45.73;95403.44;5070758;28;20604;-74
2021/12/23 00:45:09;;;;;;;7.90;5.03;;;;;;;1.01;46.71;95401.22;5072813;28;20202;-74
2021/12/23 00:47:35;;;;;;;6.15;5.55;;;;;;;0.93;46.76;95399.22;5073169;28;20170;-74
2021/12/23 00:50:02;;;;;;;8.77;6.37;;;;;;;1.07;46.32;95405.91;5071946;28;20166;-74
2021/12/23 00:52:32;;;;;;;5.90;5.30;;;;;;;1.04;46.33;95400.16;5069686;28;20497;-74
2021/12/23 00:54:58;;;;;;;6.72;6.10;;;;;;;1.22;46.16;95398.75;5068555;28;20515;-74
2021/12/23 00:57:28;;;;;;;8.27;5.90;;;;;;;1.04;46.04;95395.81;5068400;28;20261;-74
2021/12/23 00:59:56;;;;;;;6.63;5.05;;;;;;;1.30;45.86;95390.44;5066817;28;20193;-74
2021/12/23 01:02:25;;;;;;;8.32;6.22;;;;;;;1.19;46.04;95387.84;5068648;28;20200;-74
2021/12/23 01:04:51;;;;;;;9.05;6.25;;;;;;;1.02;46.42;95382.22;5068490;28;20167;-74
2021/12/23 01:07:17;;;;;;;8.30;7.13;;;;;;;1.20;46.36;95380.00;5066794;28;20197;-74
2021/12/23 01:09:42;;;;;;;9.43;6.60;;;;;;;1.10;46.51;95379.06;5068609;28;20669;-73
2021/12/23 01:12:11;;;;;;;6.83;6.23;;;;;;;0.94;46.88;95375.09;5067054;28;20198;-73
2021/12/23 01:14:43;;;;;;;6.78;6.20;;;;;;;0.87;47.24;95375.66;5068734;28;20190;-75
2021/12/23 01:17:30;;;;;;;5.97;5.25;;;;;;;0.61;47.21;95380.22;5066988;28;20170;-74
2021/12/23 01:19:57;;;;;;;6.65;5.05;;;;;;;0.95;46.31;95381.09;5068118;28;20170;-73
2021/12/23 01:22:23;;;;;;;5.95;5.45;;;;;;;0.66;47.51;95383.25;5067337;28;20222;-74
2021/12/23 01:24:50;;;;;;;7.32;5.90;;;;;;;0.86;46.94;95380.00;5067356;28;20622;-74
2021/12/23 01:27:16;;;;;;;8.65;6.47;;;;;;;0.71;47.36;95376.84;5067348;28;20170;-74
2021/12/23 01:29:42;;;;;;;7.75;5.88;;;;;;;0.70;47.10;95376.94;5066849;28;20167;-73
2021/12/23 01:32:08;;;;;;;9.70;5.70;;;;;;;0.84;47.30;95374.16;5065246;28;20514;-73
2021/12/23 01:34:35;;;;;;;6.03;5.25;;;;;;;0.78;46.99;95364.31;5065053;28;20170;-73
2021/12/23 01:37:02;;;;;;;9.23;5.80;;;;;;;0.49;46.73;95375.03;5066633;28;20225;-73
2021/12/23 01:39:27;;;;;;;3.97;3.25;;;;;;;0.12;48.07;95376.94;5065176;28;20166;-74
2021/12/23 01:41:53;;;;;;;5.77;5.17;;;;;;;0.12;47.96;95372.63;5066376;28;20223;-73
2021/12/23 01:44:18;;;;;;;7.50;4.90;;;;;;;0.22;48.10;95362.47;5066327;28;20221;-73
2021/12/23 01:46:44;;;;;;;8.33;5.33;;;;;;;0.19;47.97;95363.53;5066288;28;20162;-73
2021/12/23 01:49:10;;;;;;;5.60;4.67;;;;;;;-0.33;48.78;95371.63;5098297;28;20193;-73
2021/12/23 01:51:35;;;;;;;5.97;5.20;;;;;;;-0.12;48.30;95361.53;5066313;28;20171;-73
2021/12/23 01:54:01;;;;;;;3.43;3.10;;;;;;;-0.13;47.76;95358.16;5066221;28;20163;-73
2021/12/23 01:56:27;;;;;;;2.60;2.33;;;;;;;-0.28;47.94;95361.84;5066186;28;20171;-73
2021/12/23 01:58:53;;;;;;;4.70;4.30;;;;;;;-0.24;48.06;95370.97;5067954;28;20177;-73
2021/12/23 02:01:22;;;;;;;4.80;4.03;;;;;;;0.24;47.35;95362.34;5071569;28;20174;-73
2021/12/23 02:03:48;;;;;;;4.50;4.20;;;;;;;0.23;47.19;95365.84;5069901;28;20194;-73
2021/12/23 02:06:13;;;;;;;5.23;4.53;;;;;;;0.30;46.69;95367.03;5070493;28;20677;-73
2021/12/23 02:08:40;;;;;;;8.10;4.77;;;;;;;0.30;46.58;95367.03;5071086;28;20432;-73
2021/12/23 02:11:08;;;;;;;6.07;5.20;;;;;;;0.09;46.62;95369.44;5070909;28;20198;-74
2021/12/23 02:13:34;;;;;;;4.50;4.10;;;;;;;0.15;46.88;95377.56;5069539;28;20170;-73
2021/12/23 02:16:01;;;;;;;12.93;6.33;;;;;;;0.38;47.16;95367.31;5067320;28;20341;-74
2021/12/23 02:18:27;;;;;;;12.60;8.90;;;;;;;0.19;48.09;95384.09;5066610;28;20498;-73
2021/12/23 02:20:53;;;;;;;11.98;9.95;;;;;;;0.35;49.10;95383.78;5066244;28;20170;-73
2021/12/23 02:23:20;;;;;;;14.18;10.20;;;;;;;0.45;49.02;95383.94;5065374;28;20253;-73
2021/12/23 02:25:45;;;;;;;13.88;10.77;;;;;;;0.27;49.91;95396.41;5065639;28;20197;-73
2021/12/23 02:28:16;;;;;;;22.03;12.90;;;;;;;-0.06;50.80;95385.06;5065622;28;20178;-73
2021/12/23 02:30:42;;;;;;;18.52;11.73;;;;;;;-0.06;51.19;95376.50;5065745;28;20162;-73
2021/12/23 02:33:08;;;;;;;15.70;12.53;;;;;;;0.13;50.77;95382.00;5065643;28;20162;-73
2021/12/23 02:35:34;;;;;;;24.23;13.50;;;;;;;-0.02;50.86;95377.94;5064374;28;20174;-73
2021/12/23 02:37:59;;;;;;;16.90;11.80;;;;;;;0.45;49.46;95375.38;5065596;28;20746;-74
2021/12/23 02:40:33;;;;;;;15.40;12.53;;;;;;;-0.10;51.28;95381.06;5064977;28;20433;-74
2021/12/23 02:43:09;;;;;;;17.60;12.75;;;;;;;-0.07;51.56;95382.63;5063955;28;20201;-73
2021/12/23 02:45:34;;;;;;;15.60;12.18;;;;;;;0.06;51.24;95387.66;5065558;28;20184;-73
2021/12/23 02:48:00;;;;;;;19.90;12.53;;;;;;;0.04;51.50;95385.22;5065572;28;20649;-74
2021/12/23 02:50:26;;;;;;;10.87;9.70;;;;;;;-0.11;51.66;95370.91;5065509;28;20170;-73
2021/12/23 02:52:51;;;;;;;17.63;11.90;;;;;;;-0.63;52.68;95376.22;5064384;28;20425;-73
2021/12/23 02:55:18;;;;;;;15.63;11.40;;;;;;;-0.45;52.08;95379.28;5063973;28;20178;-73
2021/12/23 02:57:44;;;;;;;19.48;13.45;;;;;;;-0.47;52.74;95376.00;5064060;28;20170;-73
2021/12/23 03:00:10;;;;;;;18.00;12.05;;;;;;;-0.40;52.88;95372.06;5065318;28;20178;-73
2021/12/23 03:02:38;;;;;;;18.83;13.43;;;;;;;-0.67;53.12;95369.66;5065982;28;20198;-73
2021/12/23 03:05:05;;;;;;;20.92;13.52;;;;;;;-0.57;52.73;95356.16;5063949;28;20175;-73
2021/12/23 03:07:30;;;;;;;21.50;13.15;;;;;;;-0.25;52.17;95370.16;5064793;28;20194;-73
2021/12/23 03:09:56;;;;;;;25.67;14.93;;;;;;;-0.60;53.43;95365.75;5064427;28;20175;-73
2021/12/23 03:12:21;;;;;;;22.80;16.57;;;;;;;-1.09;54.67;95360.63;5064034;28;20178;-73
2021/12/23 03:14:47;;;;;;;20.70;14.23;;;;;;;-0.66;54.37;95362.81;5065055;28;20171;-73
2021/12/23 03:17:12;;;;;;;21.00;12.70;;;;;;;-0.57;53.11;95361.31;5067842;28;20174;-73
2021/12/23 03:19:38;;;;;;;20.30;10.60;;;;;;;-1.02;54.17;95360.09;5068945;28;20210;-72
2021/12/23 03:22:04;;;;;;;21.13;14.93;;;;;;;-1.25;54.90;95359.13;5068667;28;20222;-73
2021/12/23 03:24:29;;;;;;;17.83;11.80;;;;;;;-1.10;54.99;95359.81;5067402;28;20186;-73
2021/12/23 03:26:55;;;;;;;22.07;14.90;;;;;;;-1.16;54.33;95360.22;5068901;28;20172;-73
2021/12/23 03:29:20;;;;;;;21.23;15.50;;;;;;;-0.93;54.07;95362.94;5067359;28;20175;-73
2021/12/23 03:31:46;;;;;;;26.30;15.37;;;;;;;-0.60;53.71;95352.91;5068678;28;20167;-74
2021/12/23 03:34:11;;;;;;;20.70;13.07;;;;;;;-0.77;54.28;95353.25;5068546;28;20183;-73
2021/12/23 03:36:37;;;;;;;31.13;16.50;;;;;;;-1.12;55.32;95355.69;5068666;28;20196;-73
2021/12/23 03:39:04;;;;;;;22.70;15.53;;;;;;;-0.92;54.45;95364.59;5068343;28;20174;-73
2021/12/23 03:41:30;;;;;;;26.13;15.65;;;;;;;-0.81;53.41;95359.53;5068530;28;20191;-73
2021/12/23 03:43:55;;;;;;;14.13;10.57;;;;;;;-1.06;54.21;95363.81;5067140;28;20194;-73
2021/12/23 03:46:21;;;;;;;12.50;9.97;;;;;;;-1.01;53.49;95366.06;5067228;28;20221;-73
2021/12/23 03:48:46;;;;;;;23.03;13.77;;;;;;;-1.32;55.10;95370.72;5067179;28;20175;-74
2021/12/23 03:51:12;;;;;;;17.20;13.70;;;;;;;-1.68;55.88;95371.44;5068481;28;20204;-73
2021/12/23 03:53:37;;;;;;;22.70;14.47;;;;;;;-1.87;56.87;95370.06;5067144;28;20171;-74
2021/12/23 03:56:03;;;;;;;23.40;13.93;;;;;;;-1.64;56.17;95370.31;5066960;28;20186;-73
2021/12/23 03:58:29;;;;;;;18.50;13.93;;;;;;;-1.38;55.61;95371.94;5066487;28;20261;-73
2021/12/23 04:00:54;;;;;;;20.00;13.90;;;;;;;-1.28;54.95;95368.75;5067080;28;20166;-74
2021/12/23 04:03:20;;;;;;;22.13;14.90;;;;;;;-1.44;55.93;95367.22;5066786;28;20534;-73
2021/12/23 04:05:45;;;;;;;24.80;15.50;;;;;;;-1.31;55.39;95368.97;5066810;28;20171;-74
2021/12/23 04:08:11;;;;;;;20.00;14.87;;;;;;;-1.33;54.97;95370.81;5068299;28;20182;-73
2021/12/23 04:10:37;;;;;;;21.60;12.60;;;;;;;-0.70;53.67;95367.31;5066756;28;20280;-73
2021/12/23 04:13:02;;;;;;;22.88;15.57;;;;;;;-1.08;54.33;95380.22;5066279;28;20240;-73
2021/12/23 04:15:28;;;;;;;20.57;13.83;;;;;;;-1.32;55.60;95377.59;5066305;28;20166;-73
2021/12/23 04:17:53;;;;;;;18.37;11.77;;;;;;;-1.13;54.67;95385.69;5068051;28;20226;-73
2021/12/23 04:20:31;;;;;;;12.10;9.30;;;;;;;-0.96;54.07;95383.72;5067818;28;20175;-73
2021/12/23 04:22:57;;;;;;;28.83;15.52;;;;;;;-1.45;55.58;95378.41;5067440;28;20215;-73
2021/12/23 04:25:26;;;;;;;14.32;9.40;;;;;;;-1.33;55.43;95381.09;5067438;28;20171;-73
2021/12/23 04:27:54;;;;;;;17.50;11.77;;;;;;;-1.37;55.32;95388.16;5065966;28;20246;-73
2021/12/23 04:30:21;;;;;;;18.70;15.32;;;;;;;-1.59;55.85;95384.47;5067142;28;20178;-72
2021/12/23 04:32:47;;;;;;;23.65;14.60;;;;;;;-1.25;54.47;95382.22;5066250;28;20205;-73
2021/12/23 04:35:13;;;;;;;20.50;14.70;;;;;;;-1.12;54.75;95377.09;5066466;28;20175;-73
2021/12/23 04:37:38;;;;;;;22.63;13.10;;;;;;;-1.27;55.23;95372.97;5066171;28;20170;-73
2021/12/23 04:40:07;;;;;;;30.10;16.50;;;;;;;-1.29;55.35;95374.81;5067519;28;20163;-74
2021/12/23 04:42:34;;;;;;;21.63;13.60;;;;;;;-0.86;54.11;95374.44;5067511;28;20195;-73
2021/12/23 04:44:59;;;;;;;19.90;14.70;;;;;;;-1.24;54.51;95373.56;5065630;28;20170;-73
2021/12/23 04:47:25;;;;;;;26.83;16.77;;;;;;;-1.35;55.20;95372.66;5066038;28;20208;-73
2021/12/23 04:49:50;;;;;;;22.23;17.27;;;;;;;-1.38;55.06;95377.09;5066557;28;20599;-73
2021/12/23 04:52:15;;;;;;;21.30;16.23;;;;;;;-1.39;55.66;95374.63;5067268;28;20175;-73
2021/12/23 04:54:41;;;;;;;25.97;14.87;;;;;;;-1.21;55.40;95380.28;5047571;28;20163;-74
2021/12/23 04:57:07;;;;;;;26.60;16.90;;;;;;;-1.28;55.39;95379.84;5047184;28;20171;-73
2021/12/23 04:59:32;;;;;;;27.07;16.70;;;;;;;-1.38;55.33;95381.41;5055949;28;20265;-73
2021/12/23 05:01:58;;;;;;;18.63;14.97;;;;;;;-1.26;55.36;95390.84;5065419;28;20190;-73
2021/12/23 05:04:23;;;;;;;23.60;16.00;;;;;;;-1.20;55.46;95387.84;5065852;28;20234;-74
2021/12/23 05:06:49;;;;;;;23.27;16.63;;;;;;;-0.89;54.89;95392.63;5066675;28;20182;-73
2021/12/23 05:09:14;;;;;;;29.00;16.40;;;;;;;-0.86;54.50;95388.13;5066837;28;20222;-74
2021/12/23 05:11:40;;;;;;;21.93;16.93;;;;;;;-0.96;54.51;95394.00;5065518;28;20256;-73
2021/12/23 05:14:05;;;;;;;23.10;15.90;;;;;;;-0.88;54.63;95381.44;5064990;28;20190;-73
2021/12/23 05:16:31;;;;;;;21.53;14.07;;;;;;;-1.22;54.25;95379.41;5045096;28;20183;-73
2021/12/23 05:18:56;;;;;;;16.23;10.97;;;;;;;-1.20;53.94;95380.13;5045031;28;20178;-73
2021/12/23 05:21:22;;;;;;;27.20;14.23;;;;;;;-1.26;54.29;95382.31;5046424;28;20223;-73
2021/12/23 05:23:47;;;;;;;21.17;14.17;;;;;;;-1.54;55.05;95379.03;5046318;28;20673;-73
2021/12/23 05:26:12;;;;;;;24.47;15.40;;;;;;;-1.53;55.66;95378.09;5046503;28;20183;-73
2021/12/23 05:28:38;;;;;;;19.83;12.90;;;;;;;-1.43;55.49;95379.13;5046958;28;20677;-73
2021/12/23 05:31:04;;;;;;;21.33;13.23;;;;;;;-1.32;54.96;95377.59;5045036;28;20175;-74
2021/12/23 05:33:30;;;;;;;22.98;14.90;;;;;;;-1.18;54.93;95380.03;5046584;28;20162;-73
2021/12/23 05:35:55;;;;;;;16.37;14.40;;;;;;;-1.08;54.73;95382.81;5046764;28;20175;-73
2021/12/23 05:38:22;;;;;;;18.27;13.50;;;;;;;-1.26;54.90;95387.44;5044537;28;20175;-74
2021/12/23 05:40:51;;;;;;;15.02;11.15;;;;;;;-1.19;54.41;95386.13;5046143;28;20167;-73
2021/12/23 05:43:17;;;;;;;19.52;11.48;;;;;;;-1.03;53.18;95386.69;5045867;28;20188;-73
2021/12/23 05:45:42;;;;;;;16.93;12.37;;;;;;;-0.87;52.97;95390.81;5044574;28;20626;-73
2021/12/23 05:48:08;;;;;;;21.17;13.80;;;;;;;-1.49;54.24;95382.09;5046279;28;20167;-73
2021/12/23 05:50:34;;;;;;;16.13;11.70;;;;;;;-1.54;54.69;95386.72;5044676;28;20171;-74
2021/12/23 05:53:00;;;;;;;14.35;12.20;;;;;;;-1.77;55.10;95390.81;5044697;28;20167;-74
2021/12/23 05:55:25;;;;;;;15.00;11.73;;;;;;;-1.74;55.33;95393.19;5044858;28;20184;-73
2021/12/23 05:57:51;;;;;;;13.60;10.37;;;;;;;-2.05;55.97;95386.63;5044665;28;20195;-73
2021/12/23 06:00:21;;;;;;;17.87;11.20;;;;;;;-1.94;56.08;95381.63;5045938;28;20198;-73
2021/12/23 06:02:48;;;;;;;7.25;5.43;;;;;;;-2.19;56.60;95378.09;5044417;28;20678;-73
2021/12/23 06:05:14;;;;;;;23.90;13.93;;;;;;;-2.01;56.36;95380.38;5045829;28;20202;-73
2021/12/23 06:07:41;;;;;;;19.58;13.13;;;;;;;-1.86;55.85;95384.56;5046244;28;20207;-74
2021/12/23 06:10:07;;;;;;;25.23;15.55;;;;;;;-1.72;55.43;95387.94;5044212;28;20182;-74
2021/12/23 06:12:33;;;;;;;21.85;14.32;;;;;;;-1.63;55.31;95392.44;5044430;28;20190;-74
2021/12/23 06:14:59;;;;;;;17.97;13.80;;;;;;;-1.50;55.65;95389.91;5044392;28;20171;-73
2021/12/23 06:17:24;;;;;;;18.93;12.87;;;;;;;-1.46;54.53;95397.31;5046147;28;20175;-73
2021/12/23 06:19:49;;;;;;;23.87;14.20;;;;;;;-1.35;55.18;95395.78;5045845;28;20210;-74
2021/12/23 06:22:17;;;;;;;17.40;13.57;;;;;;;-1.11;54.81;95396.69;5046161;28;20231;-74
2021/12/23 06:24:45;;;;;;;19.23;14.73;;;;;;;-1.22;55.27;95405.09;5044823;28;20229;-74
2021/12/23 06:27:11;;;;;;;17.30;14.43;;;;;;;-1.04;54.71;95403.03;5045904;28;20243;-73
2021/12/23 06:29:37;;;;;;;21.95;15.50;;;;;;;-1.41;55.04;95410.66;5045112;28;20244;-74
2021/12/23 06:32:04;;;;;;;18.70;14.20;;;;;;;-1.05;54.45;95406.53;5044775;28;20282;-74
2021/12/23 06:34:29;;;;;;;25.05;14.93;;;;;;;-0.85;54.25;95402.63;5046060;28;20167;-74
2021/12/23 06:36:55;;;;;;;24.03;15.50;;;;;;;-0.76;54.07;95405.47;5045860;28;20179;-74
2021/12/23 06:39:21;;;;;;;27.27;17.13;;;;;;;-1.42;54.29;95398.75;5045851;28;20177;-74
2021/12/23 06:41:46;;;;;;;31.50;21.07;;;;;;;-0.90;54.24;95391.00;5046136;28;20179;-73
2021/12/23 06:44:11;;;;;;;32.20;24.27;;;;;;;-0.83;53.96;95394.81;5046039;28;20227;-74
2021/12/23 06:46:37;;;;;;;38.57;24.33;;;;;;;-0.98;54.08;95391.53;5046304;28;20183;-73
2021/12/23 06:49:03;;;;;;;33.53;21.73;;;;;;;-0.80;53.96;95392.84;5046124;28;20180;-74
2021/12/23 06:51:30;;;;;;;41.93;25.03;;;;;;;-0.90;54.13;95393.56;5049461;28;20180;-74
2021/12/23 06:53:57;;;;;;;31.65;20.63;;;;;;;-0.71;53.57;95391.38;5050363;28;20410;-73
2021/12/23 06:56:25;;;;;;;27.70;16.65;;;;;;;-0.84;54.14;95391.41;5049553;28;20179;-74
2021/12/23 06:58:51;;;;;;;22.70;15.32;;;;;;;-0.90;54.39;95391.81;5048288;28;20167;-74
2021/12/23 07:01:18;;;;;;;21.93;15.53;;;;;;;-0.69;53.24;95386.13;5049623;28;20183;-74
2021/12/23 07:06:30;;;;;;;19.20;14.05;;;;;;;-0.55;53.04;95385.16;5049361;28;20183;-73
2021/12/23 07:08:56;;;;;;;23.08;15.30;;;;;;;-0.31;53.22;95396.28;5049096;28;20163;-74
2021/12/23 07:11:22;;;;;;;18.47;15.50;;;;;;;-0.15;52.37;95397.75;5049001;28;20187;-74
2021/12/23 07:13:47;;;;;;;22.57;14.83;;;;;;;0.01;52.02;95385.44;5048773;28;20167;-73
2021/12/23 07:16:13;;;;;;;25.83;15.00;;;;;;;-0.04;51.60;95401.22;5047530;28;20566;-74
2021/12/23 07:18:38;;;;;;;20.93;14.70;;;;;;;-0.22;52.17;95400.78;5049102;28;20484;-75
2021/12/23 07:21:04;;;;;;;18.10;15.33;;;;;;;-0.22;52.28;95395.63;5050472;28;20214;-74
2021/12/23 07:23:29;;;;;;;23.13;15.03;;;;;;;-0.21;51.77;95401.59;5048914;28;20249;-74
2021/12/23 07:25:55;;;;;;;17.37;12.70;;;;;;;-0.29;51.79;95404.69;5048831;28;20258;-74
2021/12/23 07:28:21;;;;;;;20.75;15.20;;;;;;;-0.21;51.49;95410.13;5060628;28;20218;-73
2021/12/23 07:30:47;;;;;;;21.40;14.37;;;;;;;0.02;51.45;95407.69;5068535;28;20238;-74
2021/12/23 07:33:13;;;;;;;20.57;14.70;;;;;;;-0.21;51.63;95411.88;5067946;28;20541;-74
2021/12/23 07:35:39;;;;;;;22.60;15.27;;;;;;;0.07;51.46;95405.56;5068451;28;20175;-73
2021/12/23 07:38:05;;;;;;;18.23;14.75;;;;;;;-0.06;51.26;95417.69;5068027;28;20166;-73
2021/12/23 07:40:31;;;;;;;22.80;15.60;;;;;;;-0.05;51.24;95417.56;5067152;28;20174;-74
2021/12/23 07:43:08;;;;;;;20.50;16.57;;;;;;;-0.07;51.39;95418.63;5067176;28;20256;-73
2021/12/23 07:45:33;;;;;;;22.67;16.00;;;;;;;-0.01;51.10;95416.41;5069930;28;20228;-73
2021/12/23 07:47:59;;;;;;;24.73;18.57;;;;;;;-0.81;53.93;95418.63;5069899;28;20170;-73
2021/12/23 07:50:25;;;;;;;29.37;18.13;;;;;;;-0.34;52.71;95418.81;5068819;28;20170;-72
2021/12/23 07:52:51;;;;;;;30.73;19.90;;;;;;;0.07;52.02;95417.63;5069927;28;20680;-73
2021/12/23 07:55:17;;;;;;;25.67;17.88;;;;;;;-0.02;51.50;95411.38;5068262;28;20234;-73
2021/12/23 07:57:43;;;;;;;25.33;17.93;;;;;;;0.33;51.07;95415.72;5066608;28;20182;-73
2021/12/23 08:00:09;;;;;;;26.97;18.03;;;;;;;-0.13;51.67;95411.31;5066861;28;20417;-73
2021/12/23 08:02:35;;;;;;;33.05;17.75;;;;;;;-0.34;51.83;95413.66;5067507;28;20524;-74
2021/12/23 08:05:00;;;;;;;27.80;19.70;;;;;;;-0.20;52.33;95419.47;5066973;28;20178;-74
2021/12/23 08:07:26;;;;;;;23.17;17.73;;;;;;;-0.16;51.76;95414.13;5066814;28;20177;-74
2021/12/23 08:09:51;;;;;;;26.83;17.97;;;;;;;-0.12;51.84;95410.41;5066424;28;20181;-73
2021/12/23 08:12:17;;;;;;;25.00;17.80;;;;;;;-0.12;51.24;95410.41;5068184;28;20162;-74
2021/12/23 08:14:42;;;;;;;25.70;18.20;;;;;;;0.26;50.17;95405.06;5067377;28;20533;-74
2021/12/23 08:17:08;;;;;;;29.13;17.97;;;;;;;0.45;50.05;95407.09;5066172;28;20644;-73
2021/12/23 08:19:33;;;;;;;34.17;20.03;;;;;;;-0.18;51.08;95406.53;5067554;28;20179;-73
2021/12/23 08:21:59;;;;;;;34.63;19.20;;;;;;;0.27;50.76;95416.19;5067216;28;20217;-74
2021/12/23 08:24:24;;;;;;;36.73;18.53;;;;;;;-0.27;51.20;95413.13;5067515;28;20186;-74
2021/12/23 08:26:54;;;;;;;24.30;16.97;;;;;;;0.05;50.27;95401.47;5067574;28;20174;-73
2021/12/23 08:29:21;;;;;;;24.98;17.38;;;;;;;-0.34;52.19;95404.22;5066246;28;20286;-74
2021/12/23 08:31:52;;;;;;;25.17;18.30;;;;;;;0.41;49.71;95407.44;5067574;28;20198;-74
2021/12/23 08:34:18;;;;;;;24.88;17.23;;;;;;;0.61;49.16;95393.91;5065752;28;20178;-73
2021/12/23 08:36:44;;;;;;;28.83;18.35;;;;;;;0.94;48.19;95390.53;5066006;28;20219;-73
2021/12/23 08:39:09;;;;;;;28.97;18.67;;;;;;;0.86;47.77;95397.22;5067616;28;20175;-73
2021/12/23 08:41:35;;;;;;;31.43;18.23;;;;;;;1.00;47.98;95396.19;5067281;28;20167;-73
2021/12/23 08:44:00;;;;;;;19.93;17.50;;;;;;;0.60;47.95;95391.47;5065608;28;20198;-73
2021/12/23 08:46:26;;;;;;;24.10;17.17;;;;;;;-0.03;49.84;95394.31;5066509;28;20174;-73
2021/12/23 08:48:51;;;;;;;20.93;17.80;;;;;;;-0.11;50.21;95397.44;5067498;28;20205;-74
2021/12/23 08:51:17;;;;;;;26.80;21.13;;;;;;;0.16;49.92;95386.09;5066939;28;20243;-74
2021/12/23 08:53:42;;;;;;;30.10;17.80;;;;;;;0.68;48.41;95376.25;5066110;28;20187;-75
2021/12/23 08:56:08;;;;;;;28.07;18.67;;;;;;;0.97;48.13;95374.88;5067405;28;20184;-75
2021/12/23 08:58:36;;;;;;;26.73;17.92;;;;;;;1.48;46.82;95373.53;5069251;28;20244;-73
2021/12/23 09:01:03;;;;;;;24.23;17.58;;;;;;;1.01;46.67;95369.47;5075725;28;20170;-75
2021/12/23 09:03:32;;;;;;;31.05;19.63;;;;;;;0.04;48.30;95369.78;5066787;28;20639;-72
2021/12/23 09:05:58;;;;;;;26.77;20.10;;;;;;;1.18;47.06;95363.84;5066891;28;20178;-72
2021/12/23 09:08:25;;;;;;;23.25;17.13;;;;;;;1.53;45.50;95357.69;5065462;28;20265;-74
2021/12/23 09:10:53;;;;;;;26.30;16.73;;;;;;;1.56;44.58;95347.13;5066503;28;20169;-73
2021/12/23 09:13:18;;;;;;;25.25;15.80;;;;;;;1.37;45.25;95340.03;5064323;28;20178;-73
2021/12/23 09:15:44;;;;;;;26.10;14.97;;;;;;;1.59;44.81;95326.25;5065062;28;20265;-73
2021/12/23 09:18:10;;;;;;;28.13;18.37;;;;;;;2.11;44.85;95329.78;5065520;28;20409;-74
2021/12/23 09:20:36;;;;;;;23.40;16.87;;;;;;;2.35;43.16;95326.13;5065410;28;20785;-74
2021/12/23 09:23:01;;;;;;;20.20;16.43;;;;;;;2.45;43.29;95319.28;5066720;28;20226;-74
2021/12/23 09:25:29;;;;;;;26.43;17.47;;;;;;;2.48;44.32;95323.34;5066599;28;20451;-74
2021/12/23 09:28:20;;;;;;;22.38;17.50;;;;;;;2.80;44.42;95322.44;5064905;28;20182;-75
2021/12/23 09:33:30;;;;;;;21.40;17.10;;;;;;;3.63;42.17;95312.72;5066547;28;20194;-74
2021/12/23 09:35:56;;;;;;;21.60;16.53;;;;;;;4.03;41.45;95310.00;5066181;28;20174;-74
2021/12/23 09:38:27;;;;;;;24.50;14.53;;;;;;;4.83;37.92;95313.09;5066012;28;20178;-74
2021/12/23 09:40:59;;;;;;;23.63;16.40;;;;;;;4.49;39.80;95305.00;5064448;28;20413;-73
2021/12/23 09:43:28;;;;;;;23.10;18.17;;;;;;;5.02;38.76;95301.00;5065912;28;20452;-74
2021/12/23 09:45:54;;;;;;;23.87;16.40;;;;;;;4.94;37.53;95300.91;5066023;28;20429;-73
2021/12/23 09:48:21;;;;;;;23.37;17.00;;;;;;;5.50;37.37;95294.72;5065540;28;20978;-74
2021/12/23 09:50:49;;;;;;;26.37;17.90;;;;;;;5.93;36.32;95285.41;5065361;28;20171;-74
2021/12/23 09:53:18;;;;;;;25.40;17.97;;;;;;;5.50;37.09;95279.16;5066042;28;20995;-73
2021/12/23 09:55:44;;;;;;;20.07;17.07;;;;;;;6.01;36.36;95271.69;5065533;28;20409;-74
2021/12/23 09:58:10;;;;;;;20.90;16.63;;;;;;;6.65;35.48;95267.09;5064288;28;20486;-74
2021/12/23 10:00:39;;;;;;;25.90;19.17;;;;;;;6.66;34.65;95260.94;5063893;28;20436;-74
2021/12/23 10:03:06;;;;;;;25.67;19.40;;;;;;;6.72;35.05;95259.50;5065302;28;20537;-74
2021/12/23 10:05:33;;;;;;;25.83;19.57;;;;;;;7.26;34.11;95256.59;5065456;28;20443;-74
2021/12/23 10:08:01;;;;;;;23.40;18.60;;;;;;;7.13;33.68;95247.47;5065306;28;20413;-74
2021/12/23 10:10:37;;;;;;;28.20;19.13;;;;;;;7.47;33.84;95249.16;5063743;28;20418;-74
2021/12/23 10:38:23;;;;;;;35.40;25.97;;;;;;;7.48;33.52;95226.56;5064460;28;20553;-73
2021/12/23 10:40:53;;;;;;;28.33;20.57;;;;;;;6.52;33.75;95223.28;5061277;28;20895;-72
2021/12/23 10:43:25;;;;;;;29.90;22.77;;;;;;;6.43;34.40;95226.81;5063243;28;20480;-73
2021/12/23 10:45:58;;;;;;;25.60;20.27;;;;;;;6.28;34.61;95216.19;5064762;28;20452;-73
2021/12/23 10:48:30;;;;;;;27.63;19.90;;;;;;;6.47;34.58;95215.16;5063486;28;20410;-72
2021/12/23 10:51:02;;;;;;;29.10;20.80;;;;;;;6.09;34.83;95203.38;5064860;28;20508;-73
2021/12/23 10:53:48;;;;;;;32.67;22.93;;;;;;;6.53;35.05;95200.72;5064753;28;20845;-73
2021/12/23 10:59:27;;;;;;;42.47;23.97;;;;;;;7.88;32.67;95181.47;5064813;28;20448;-73
2021/12/23 11:02:19;;;;;;;36.40;22.33;;;;;;;8.13;33.00;95176.22;5063672;28;20441;-73
2021/12/23 11:07:57;;;;;;;32.37;20.60;;;;;;;7.52;32.09;95179.19;5061973;28;20500;-73
2021/12/23 11:28:03;;;;;;;26.70;22.40;;;;;;;7.22;33.38;95159.78;5064985;28;20427;-73
2021/12/23 11:41:32;;;;;;;28.57;21.50;;;;;;;9.29;29.72;95122.59;5067638;28;20428;-72
2021/12/23 11:44:00;;;;;;;23.03;18.73;;;;;;;8.04;31.13;95127.69;5066119;28;20460;-73
2021/12/23 11:46:34;;;;;;;22.80;19.07;;;;;;;7.66;32.32;95115.22;5066334;28;20428;-72
2021/12/23 11:49:02;;;;;;;26.30;17.10;;;;;;;8.35;31.47;95119.97;5055925;28;20445;-73
2021/12/23 11:51:42;;;;;;;24.00;16.97;;;;;;;7.61;31.14;95113.09;5054813;28;20436;-72
2021/12/23 11:54:12;;;;;;;20.10;16.13;;;;;;;6.91;33.43;95117.97;5061410;28;20492;-75
2021/12/23 11:56:47;;;;;;;20.13;16.73;;;;;;;6.92;33.37;95106.56;5063477;28;20452;-77
2021/12/23 11:59:15;;;;;;;20.13;14.20;;;;;;;7.66;32.21;95104.00;5053487;28;20484;-77
2021/12/23 12:01:54;;;;;;;20.17;17.07;;;;;;;6.50;34.14;95110.03;5066199;28;20429;-75
2021/12/23 12:04:37;;;;;;;23.67;19.10;;;;;;;7.21;33.14;95100.91;5045172;28;20473;-75
2021/12/23 12:07:24;;;;;;;28.03;17.80;;;;;;;7.28;33.07;95098.47;5066397;28;20432;-74
2021/12/23 12:10:09;;;;;;;24.37;18.30;;;;;;;7.63;32.53;95110.34;5068092;28;20445;-74
2021/12/23 12:12:55;;;;;;;27.60;19.90;;;;;;;7.78;31.91;95106.09;5067334;28;20512;-73
2021/12/23 12:15:34;;;;;;;27.00;19.77;;;;;;;7.98;32.60;95087.47;5066078;28;20431;-77
2021/12/23 12:18:02;;;;;;;26.57;19.63;;;;;;;8.15;32.31;95091.66;5069456;28;20424;-73
2021/12/23 12:23:37;;;;;;;23.03;17.80;;;;;;;7.94;32.27;95089.59;5025501;28;20513;-72
2021/12/23 12:26:12;;;;;;;28.80;20.70;;;;;;;7.72;32.83;95087.69;5008916;28;20454;-73
2021/12/23 12:28:47;;;;;;;33.17;19.63;;;;;;;7.97;32.50;95078.84;5048567;28;20459;-73
2021/12/23 12:31:15;;;;;;;25.10;19.63;;;;;;;8.11;31.30;95079.94;5065797;28;20427;-73
2021/12/23 12:33:52;;;;;;;26.47;20.73;;;;;;;6.90;33.54;95077.28;5066813;28;20421;-72
2021/12/23 12:36:18;;;;;;;22.53;19.17;;;;;;;6.94;33.87;95071.59;5067080;28;20421;-73
2021/12/23 12:38:50;;;;;;;25.27;18.80;;;;;;;6.86;33.77;95073.41;5065933;28;20421;-72
2021/12/23 12:41:23;;;;;;;25.10;19.60;;;;;;;6.79;34.12;95070.59;5065717;28;20832;-73